KEED

Needles Airport

Needles, California, USA
METAR KEED 240156Z AUTO 20007KT 10SM CLR 34/M07 A2980 RMK AO2 SLP058 T03391072
Observed Flight Rules
May-24 @ 01:56 UTC (23 minutes ago) Visual Flight Rules
Wind Visibility Clouds
200° at 7 knots 10 miles
  • Clear skies
Temperatures Readings
Current 34°C / 93°F
Dewpoint -7°C / 19°F
Humidity 7%
Altimeter 29.8" Hg
Pressure 1005.8 hPa
Elevation 302
METAR KEED 240156Z AUTO 20007KT 10SM CLR 34/M07 A2980 RMK AO2 SLP058 T03391072
Observed Flight Rules
May-24 @ 01:56 UTC
(23 minutes ago)
VFR
Wind Visibility
200° at 7 knots 10 miles
Clouds
  • Clear skies
Temperature Dewpoint
34°C / 93°F -7°C / 19°F
Humidity Altimeter Pressure
7% 29.8" Hg 1005.8 hPa